sensor_id;sensor_type;location;lat;lon;timestamp;pressure;altitude;pressure_sealevel;temperature;humidity
83635;BME280;73596;49.482;11.238;2023-12-14T00:02:08;96892.22;;;5.26;98.64
83635;BME280;73596;49.482;11.238;2023-12-14T00:04:33;96899.16;;;5.24;98.89
83635;BME280;73596;49.482;11.238;2023-12-14T00:06:58;96903.25;;;5.27;98.66
83635;BME280;73596;49.482;11.238;2023-12-14T00:09:23;96910.03;;;5.28;98.52
83635;BME280;73596;49.482;11.238;2023-12-14T00:11:49;96907.47;;;5.28;98.26
83635;BME280;73596;49.482;11.238;2023-12-14T00:14:14;96910.84;;;5.28;98.74
83635;BME280;73596;49.482;11.238;2023-12-14T00:16:39;96915.00;;;5.29;98.99
83635;BME280;73596;49.482;11.238;2023-12-14T00:19:04;96912.78;;;5.25;98.83
83635;BME280;73596;49.482;11.238;2023-12-14T00:21:30;96912.56;;;5.28;98.95
83635;BME280;73596;49.482;11.238;2023-12-14T00:23:55;96911.66;;;5.29;98.55
83635;BME280;73596;49.482;11.238;2023-12-14T00:26:20;96918.53;;;5.28;98.41
83635;BME280;73596;49.482;11.238;2023-12-14T00:28:45;96910.22;;;5.25;98.78
83635;BME280;73596;49.482;11.238;2023-12-14T00:31:11;96931.19;;;5.30;98.76
83635;BME280;73596;49.482;11.238;2023-12-14T00:33:36;96932.84;;;5.31;98.53
83635;BME280;73596;49.482;11.238;2023-12-14T00:36:01;96922.19;;;5.24;98.76
83635;BME280;73596;49.482;11.238;2023-12-14T00:38:28;96934.47;;;5.32;98.42
83635;BME280;73596;49.482;11.238;2023-12-14T00:40:53;96934.09;;;5.25;98.72
83635;BME280;73596;49.482;11.238;2023-12-14T00:43:18;96944.63;;;5.33;98.78
83635;BME280;73596;49.482;11.238;2023-12-14T00:45:44;96944.94;;;5.29;98.25
83635;BME280;73596;49.482;11.238;2023-12-14T00:48:09;96943.28;;;5.28;98.45
83635;BME280;73596;49.482;11.238;2023-12-14T00:50:37;96958.25;;;5.34;98.74
83635;BME280;73596;49.482;11.238;2023-12-14T00:53:02;96957.44;;;5.33;98.32
83635;BME280;73596;49.482;11.238;2023-12-14T00:55:28;96961.00;;;5.31;98.97
83635;BME280;73596;49.482;11.238;2023-12-14T00:57:53;96961.72;;;5.33;98.45
83635;BME280;73596;49.482;11.238;2023-12-14T01:00:18;96961.94;;;5.30;98.97
83635;BME280;73596;49.482;11.238;2023-12-14T01:02:44;96969.53;;;5.31;98.78
83635;BME280;73596;49.482;11.238;2023-12-14T01:05:09;96979.53;;;5.34;99.05
83635;BME280;73596;49.482;11.238;2023-12-14T01:07:34;96972.16;;;5.30;98.44
83635;BME280;73596;49.482;11.238;2023-12-14T01:10:00;96987.31;;;5.33;98.02
83635;BME280;73596;49.482;11.238;2023-12-14T01:12:25;96993.28;;;5.33;98.48
83635;BME280;73596;49.482;11.238;2023-12-14T01:14:50;97000.84;;;5.35;98.83
83635;BME280;73596;49.482;11.238;2023-12-14T01:17:15;96997.69;;;5.31;99.17
83635;BME280;73596;49.482;11.238;2023-12-14T01:19:41;97006.66;;;5.37;98.77
83635;BME280;73596;49.482;11.238;2023-12-14T01:22:06;97000.84;;;5.35;98.64
83635;BME280;73596;49.482;11.238;2023-12-14T01:24:31;96995.13;;;5.31;98.82
83635;BME280;73596;49.482;11.238;2023-12-14T01:26:57;97003.72;;;5.30;99.04
83635;BME280;73596;49.482;11.238;2023-12-14T01:29:22;97012.09;;;5.32;98.41
83635;BME280;73596;49.482;11.238;2023-12-14T01:31:47;97014.66;;;5.32;98.70
83635;BME280;73596;49.482;11.238;2023-12-14T01:34:12;97007.28;;;5.28;98.73
83635;BME280;73596;49.482;11.238;2023-12-14T01:36:38;97023.06;;;5.34;98.94
83635;BME280;73596;49.482;11.238;2023-12-14T01:39:06;97021.44;;;5.33;98.33
83635;BME280;73596;49.482;11.238;2023-12-14T01:41:32;97025.72;;;5.33;98.71
83635;BME280;73596;49.482;11.238;2023-12-14T01:43:58;97030.84;;;5.33;98.41
83635;BME280;73596;49.482;11.238;2023-12-14T01:46:23;97028.28;;;5.33;98.52
83635;BME280;73596;49.482;11.238;2023-12-14T01:48:49;97026.03;;;5.28;98.84
83635;BME280;73596;49.482;11.238;2023-12-14T01:51:14;97032.59;;;5.32;98.38
83635;BME280;73596;49.482;11.238;2023-12-14T01:53:39;97022.78;;;5.26;99.04
83635;BME280;73596;49.482;11.238;2023-12-14T01:56:06;97037.81;;;5.31;98.46
83635;BME280;73596;49.482;11.238;2023-12-14T01:58:31;97033.72;;;5.28;98.76
83635;BME280;73596;49.482;11.238;2023-12-14T02:01:08;97028.41;;;5.19;98.28
83635;BME280;73596;49.482;11.238;2023-12-14T02:03:50;97050.00;;;5.27;98.75
83635;BME280;73596;49.482;11.238;2023-12-14T02:06:16;97048.38;;;5.26;98.45
83635;BME280;73596;49.482;11.238;2023-12-14T02:08:41;97055.03;;;5.29;97.97
83635;BME280;73596;49.482;11.238;2023-12-14T02:11:06;97054.41;;;5.25;98.17
83635;BME280;73596;49.482;11.238;2023-12-14T02:13:32;97064.13;;;5.33;98.37
83635;BME280;73596;49.482;11.238;2023-12-14T02:15:57;97043.00;;;5.17;97.75
83635;BME280;73596;49.482;11.238;2023-12-14T02:18:23;97062.72;;;5.29;98.77
83635;BME280;73596;49.482;11.238;2023-12-14T02:20:48;97070.06;;;5.33;98.42
83635;BME280;73596;49.482;11.238;2023-12-14T02:23:16;97063.09;;;5.23;97.80
83635;BME280;73596;49.482;11.238;2023-12-14T02:25:41;97071.19;;;5.29;98.18
83635;BME280;73596;49.482;11.238;2023-12-14T02:28:06;97061.25;;;5.25;97.83
83635;BME280;73596;49.482;11.238;2023-12-14T02:30:31;97080.50;;;5.30;98.29
83635;BME280;73596;49.482;11.238;2023-12-14T02:32:57;97077.97;;;5.30;98.01
83635;BME280;73596;49.482;11.238;2023-12-14T02:35:22;97085.53;;;5.32;98.33
83635;BME280;73596;49.482;11.238;2023-12-14T02:37:48;97081.53;;;5.28;98.12
83635;BME280;73596;49.482;11.238;2023-12-14T02:40:16;97080.19;;;5.22;98.02
83635;BME280;73596;49.482;11.238;2023-12-14T02:42:41;97081.13;;;5.21;97.60
83635;BME280;73596;49.482;11.238;2023-12-14T02:45:07;97093.44;;;5.29;98.06
83635;BME280;73596;49.482;11.238;2023-12-14T02:47:34;97103.88;;;5.38;97.59
83635;BME280;73596;49.482;11.238;2023-12-14T02:49:59;97095.16;;;5.28;97.73
83635;BME280;73596;49.482;11.238;2023-12-14T02:52:24;97090.75;;;5.18;97.52
83635;BME280;73596;49.482;11.238;2023-12-14T02:54:50;97113.69;;;5.32;97.57
83635;BME280;73596;49.482;11.238;2023-12-14T02:57:15;97115.44;;;5.31;97.57
83635;BME280;73596;49.482;11.238;2023-12-14T02:59:40;97119.81;;;5.29;97.88
83635;BME280;73596;49.482;11.238;2023-12-14T03:02:06;97124.88;;;5.31;97.36
83635;BME280;73596;49.482;11.238;2023-12-14T03:04:31;97128.44;;;5.28;97.28
83635;BME280;73596;49.482;11.238;2023-12-14T03:06:56;97124.34;;;5.26;97.85
83635;BME280;73596;49.482;11.238;2023-12-14T03:09:22;97129.78;;;5.21;97.85
83635;BME280;73596;49.482;11.238;2023-12-14T03:11:48;97138.06;;;5.25;97.33
83635;BME280;73596;49.482;11.238;2023-12-14T03:14:13;97141.31;;;5.27;97.73
83635;BME280;73596;49.482;11.238;2023-12-14T03:16:39;97125.03;;;5.15;97.99
83635;BME280;73596;49.482;11.238;2023-12-14T03:19:05;97132.22;;;5.23;98.21
83635;BME280;73596;49.482;11.238;2023-12-14T03:21:30;97143.09;;;5.26;97.54
83635;BME280;73596;49.482;11.238;2023-12-14T03:23:56;97147.47;;;5.24;97.65
83635;BME280;73596;49.482;11.238;2023-12-14T03:26:21;97152.50;;;5.26;97.90
83635;BME280;73596;49.482;11.238;2023-12-14T03:28:46;97157.94;;;5.21;97.98
83635;BME280;73596;49.482;11.238;2023-12-14T03:31:13;97162.09;;;5.22;97.56
83635;BME280;73596;49.482;11.238;2023-12-14T03:33:39;97168.25;;;5.20;97.69
83635;BME280;73596;49.482;11.238;2023-12-14T03:36:05;97168.97;;;5.22;98.18
83635;BME280;73596;49.482;11.238;2023-12-14T03:38:31;97173.38;;;5.20;97.69
83635;BME280;73596;49.482;11.238;2023-12-14T03:40:57;97169.78;;;5.22;98.15
83635;BME280;73596;49.482;11.238;2023-12-14T03:43:22;97173.28;;;5.21;97.57
83635;BME280;73596;49.482;11.238;2023-12-14T03:45:47;97183.59;;;5.20;97.47
83635;BME280;73596;49.482;11.238;2023-12-14T03:48:12;97184.81;;;5.14;97.80
83635;BME280;73596;49.482;11.238;2023-12-14T03:50:38;97192.28;;;5.17;97.38
83635;BME280;73596;49.482;11.238;2023-12-14T03:53:03;97187.47;;;5.12;97.53
83635;BME280;73596;49.482;11.238;2023-12-14T03:55:28;97205.09;;;5.17;97.57
83635;BME280;73596;49.482;11.238;2023-12-14T03:57:54;97204.56;;;5.12;97.65
83635;BME280;73596;49.482;11.238;2023-12-14T04:00:19;97211.16;;;5.16;97.86
83635;BME280;73596;49.482;11.238;2023-12-14T04:02:45;97219.63;;;5.17;97.36
83635;BME280;73596;49.482;11.238;2023-12-14T04:05:10;97218.91;;;5.14;98.18
83635;BME280;73596;49.482;11.238;2023-12-14T04:07:36;97226.59;;;5.14;97.68
83635;BME280;73596;49.482;11.238;2023-12-14T04:10:02;97224.13;;;5.13;98.01
83635;BME280;73596;49.482;11.238;2023-12-14T04:12:28;97229.16;;;5.14;97.57
83635;BME280;73596;49.482;11.238;2023-12-14T04:14:54;97225.03;;;5.12;97.59
83635;BME280;73596;49.482;11.238;2023-12-14T04:17:22;97235.19;;;5.13;97.95
83635;BME280;73596;49.482;11.238;2023-12-14T04:19:48;97242.78;;;5.15;96.98
83635;BME280;73596;49.482;11.238;2023-12-14T04:22:13;97237.00;;;5.11;97.79
83635;BME280;73596;49.482;11.238;2023-12-14T04:24:38;97249.56;;;5.16;97.36
83635;BME280;73596;49.482;11.238;2023-12-14T04:27:04;97252.81;;;5.18;96.91
83635;BME280;73596;49.482;11.238;2023-12-14T04:29:31;97258.22;;;5.13;97.64
83635;BME280;73596;49.482;11.238;2023-12-14T04:31:56;97245.28;;;5.02;97.21
83635;BME280;73596;49.482;11.238;2023-12-14T04:34:21;97263.44;;;5.12;97.28
83635;BME280;73596;49.482;11.238;2023-12-14T04:36:46;97264.25;;;5.12;97.46
83635;BME280;73596;49.482;11.238;2023-12-14T04:39:13;97267.00;;;5.09;97.11
83635;BME280;73596;49.482;11.238;2023-12-14T04:41:38;97270.28;;;5.11;97.67
83635;BME280;73596;49.482;11.238;2023-12-14T04:44:03;97262.91;;;5.07;98.15
83635;BME280;73596;49.482;11.238;2023-12-14T04:46:29;97276.22;;;5.12;97.73
83635;BME280;73596;49.482;11.238;2023-12-14T04:48:57;97283.91;;;5.12;97.51
83635;BME280;73596;49.482;11.238;2023-12-14T04:51:22;97292.41;;;5.12;97.48
83635;BME280;73596;49.482;11.238;2023-12-14T04:53:48;97294.25;;;5.10;97.16
83635;BME280;73596;49.482;11.238;2023-12-14T04:56:13;97296.16;;;5.07;97.62
83635;BME280;73596;49.482;11.238;2023-12-14T04:58:39;97292.72;;;5.08;97.65
83635;BME280;73596;49.482;11.238;2023-12-14T05:01:05;97301.09;;;5.10;98.07
83635;BME280;73596;49.482;11.238;2023-12-14T05:03:31;97306.03;;;5.13;97.56
83635;BME280;73596;49.482;11.238;2023-12-14T05:05:56;97309.50;;;5.12;97.67
83635;BME280;73596;49.482;11.238;2023-12-14T05:08:25;97315.53;;;5.11;97.61
83635;BME280;73596;49.482;11.238;2023-12-14T05:10:50;97311.34;;;5.10;97.79
83635;BME280;73596;49.482;11.238;2023-12-14T05:13:15;97307.41;;;5.04;97.70
83635;BME280;73596;49.482;11.238;2023-12-14T05:15:41;97316.22;;;5.00;97.59
83635;BME280;73596;49.482;11.238;2023-12-14T05:18:06;97318.66;;;5.02;97.75
83635;BME280;73596;49.482;11.238;2023-12-14T05:20:35;97320.22;;;5.04;97.91
83635;BME280;73596;49.482;11.238;2023-12-14T05:23:01;97328.91;;;5.02;97.27
83635;BME280;73596;49.482;11.238;2023-12-14T05:25:26;97333.00;;;5.04;97.72
83635;BME280;73596;49.482;11.238;2023-12-14T05:27:51;97332.38;;;5.01;97.74
83635;BME280;73596;49.482;11.238;2023-12-14T05:30:17;97329.09;;;4.99;97.50
83635;BME280;73596;49.482;11.238;2023-12-14T05:32:43;97349.19;;;5.05;97.53
83635;BME280;73596;49.482;11.238;2023-12-14T05:35:09;97353.38;;;5.06;97.77
83635;BME280;73596;49.482;11.238;2023-12-14T05:37:34;97352.47;;;5.07;97.89
83635;BME280;73596;49.482;11.238;2023-12-14T05:40:00;97355.22;;;5.04;97.71
83635;BME280;73596;49.482;11.238;2023-12-14T05:42:25;97356.69;;;5.08;97.95
83635;BME280;73596;49.482;11.238;2023-12-14T05:44:50;97366.81;;;5.09;97.65
83635;BME280;73596;49.482;11.238;2023-12-14T05:47:15;97370.22;;;5.10;97.70
83635;BME280;73596;49.482;11.238;2023-12-14T05:49:42;97371.84;;;5.11;98.03
83635;BME280;73596;49.482;11.238;2023-12-14T05:52:07;97377.72;;;5.13;98.14
83635;BME280;73596;49.482;11.238;2023-12-14T05:54:33;97380.44;;;5.10;97.70
83635;BME280;73596;49.482;11.238;2023-12-14T05:57:00;97375.69;;;5.04;97.49
83635;BME280;73596;49.482;11.238;2023-12-14T05:59:25;97389.22;;;5.06;97.72
83635;BME280;73596;49.482;11.238;2023-12-14T06:01:59;97396.72;;;5.09;97.59
83635;BME280;73596;49.482;11.238;2023-12-14T06:04:26;97391.88;;;5.04;97.18
83635;BME280;73596;49.482;11.238;2023-12-14T06:06:51;97399.44;;;5.06;97.21
83635;BME280;73596;49.482;11.238;2023-12-14T06:09:17;97404.50;;;5.07;97.78
83635;BME280;73596;49.482;11.238;2023-12-14T06:11:46;97397.91;;;5.03;97.63
83635;BME280;73596;49.482;11.238;2023-12-14T06:14:11;97405.69;;;5.02;97.63
83635;BME280;73596;49.482;11.238;2023-12-14T06:16:36;97405.78;;;5.00;97.49
83635;BME280;73596;49.482;11.238;2023-12-14T06:19:01;97415.81;;;5.03;97.20
83635;BME280;73596;49.482;11.238;2023-12-14T06:21:27;97427.72;;;5.04;97.38
83635;BME280;73596;49.482;11.238;2023-12-14T06:23:56;97428.72;;;5.02;97.72
83635;BME280;73596;49.482;11.238;2023-12-14T06:26:24;97433.72;;;5.03;97.63
83635;BME280;73596;49.482;11.238;2023-12-14T06:28:49;97407.66;;;4.69;96.40
83635;BME280;73596;49.482;11.238;2023-12-14T06:31:15;97442.19;;;4.62;96.41
83635;BME280;73596;49.482;11.238;2023-12-14T06:33:41;97442.06;;;4.49;95.64
83635;BME280;73596;49.482;11.238;2023-12-14T06:36:12;97440.63;;;4.29;95.76
83635;BME280;73596;49.482;11.238;2023-12-14T06:38:38;97450.94;;;4.28;96.75
83635;BME280;73596;49.482;11.238;2023-12-14T06:41:04;97448.63;;;4.23;96.77
83635;BME280;73596;49.482;11.238;2023-12-14T06:43:29;97460.59;;;4.23;97.29
83635;BME280;73596;49.482;11.238;2023-12-14T06:45:55;97457.22;;;4.22;97.14
83635;BME280;73596;49.482;11.238;2023-12-14T06:48:20;97464.97;;;4.21;97.51
83635;BME280;73596;49.482;11.238;2023-12-14T06:50:45;97467.78;;;4.16;97.50
83635;BME280;73596;49.482;11.238;2023-12-14T06:53:11;97474.03;;;4.26;98.16
83635;BME280;73596;49.482;11.238;2023-12-14T06:55:36;97478.56;;;4.21;98.02
83635;BME280;73596;49.482;11.238;2023-12-14T06:58:02;97485.41;;;4.21;98.25
83635;BME280;73596;49.482;11.238;2023-12-14T07:00:27;97483.94;;;4.17;98.34
83635;BME280;73596;49.482;11.238;2023-12-14T07:02:54;97499.03;;;4.21;98.02
83635;BME280;73596;49.482;11.238;2023-12-14T07:05:19;97504.97;;;4.22;98.16
83635;BME280;73596;49.482;11.238;2023-12-14T07:07:45;97512.13;;;4.15;98.10
83635;BME280;73596;49.482;11.238;2023-12-14T07:10:10;97516.00;;;4.22;98.74
83635;BME280;73596;49.482;11.238;2023-12-14T07:12:36;97520.03;;;4.26;98.39
83635;BME280;73596;49.482;11.238;2023-12-14T07:15:01;97528.28;;;4.31;99.04
83635;BME280;73596;49.482;11.238;2023-12-14T07:17:26;97532.28;;;4.51;99.38
83635;BME280;73596;49.482;11.238;2023-12-14T07:19:52;97543.09;;;4.56;99.52
83635;BME280;73596;49.482;11.238;2023-12-14T07:22:18;97532.03;;;4.56;99.22
83635;BME280;73596;49.482;11.238;2023-12-14T07:24:43;97536.25;;;4.57;99.67
83635;BME280;73596;49.482;11.238;2023-12-14T07:27:09;97544.38;;;4.63;99.19
83635;BME280;73596;49.482;11.238;2023-12-14T07:29:34;97550.00;;;4.70;99.68
83635;BME280;73596;49.482;11.238;2023-12-14T07:31:59;97560.97;;;4.72;99.77
83635;BME280;73596;49.482;11.238;2023-12-14T07:34:24;97565.19;;;4.73;99.38
83635;BME280;73596;49.482;11.238;2023-12-14T07:36:53;97562.44;;;4.76;99.50
83635;BME280;73596;49.482;11.238;2023-12-14T07:39:18;97569.31;;;4.75;99.27
83635;BME280;73596;49.482;11.238;2023-12-14T07:41:44;97569.03;;;4.80;99.45
83635;BME280;73596;49.482;11.238;2023-12-14T07:44:09;97574.06;;;4.81;99.08
83635;BME280;73596;49.482;11.238;2023-12-14T07:46:34;97582.41;;;4.85;99.05
83635;BME280;73596;49.482;11.238;2023-12-14T07:49:00;97570.78;;;4.79;98.89
83635;BME280;73596;49.482;11.238;2023-12-14T07:51:25;97584.03;;;4.86;99.46
83635;BME280;73596;49.482;11.238;2023-12-14T07:53:50;97588.97;;;4.89;98.74
83635;BME280;73596;49.482;11.238;2023-12-14T07:56:15;97591.47;;;4.90;98.66
83635;BME280;73596;49.482;11.238;2023-12-14T07:58:41;97597.31;;;4.92;99.21
83635;BME280;73596;49.482;11.238;2023-12-14T08:01:06;97597.38;;;4.91;99.04
83635;BME280;73596;49.482;11.238;2023-12-14T08:03:32;97594.03;;;4.90;99.34
83635;BME280;73596;49.482;11.238;2023-12-14T08:05:57;97605.63;;;4.96;98.77
83635;BME280;73596;49.482;11.238;2023-12-14T08:08:22;97601.34;;;4.96;98.44
83635;BME280;73596;49.482;11.238;2023-12-14T08:10:47;97609.84;;;4.97;98.63
83635;BME280;73596;49.482;11.238;2023-12-14T08:13:13;97617.44;;;4.98;98.42
83635;BME280;73596;49.482;11.238;2023-12-14T08:15:38;97617.44;;;4.98;98.61
83635;BME280;73596;49.482;11.238;2023-12-14T08:18:03;97613.25;;;4.97;98.58
83635;BME280;73596;49.482;11.238;2023-12-14T08:20:29;97623.31;;;5.00;98.39
83635;BME280;73596;49.482;11.238;2023-12-14T08:22:54;97630.06;;;5.01;98.49
83635;BME280;73596;49.482;11.238;2023-12-14T08:25:19;97623.38;;;4.99;98.00
83635;BME280;73596;49.482;11.238;2023-12-14T08:27:45;97640.88;;;5.06;98.12
83635;BME280;73596;49.482;11.238;2023-12-14T08:30:10;97636.69;;;5.05;98.27
83635;BME280;73596;49.482;11.238;2023-12-14T08:32:36;97632.56;;;5.03;98.40
83635;BME280;73596;49.482;11.238;2023-12-14T08:35:01;97641.44;;;5.11;98.20
83635;BME280;73596;49.482;11.238;2023-12-14T08:37:26;97647.47;;;5.10;97.91
83635;BME280;73596;49.482;11.238;2023-12-14T08:39:52;97650.50;;;5.17;98.47
83635;BME280;73596;49.482;11.238;2023-12-14T08:42:17;97647.06;;;5.18;98.45
83635;BME280;73596;49.482;11.238;2023-12-14T08:44:42;97654.63;;;5.20;97.50
83635;BME280;73596;49.482;11.238;2023-12-14T08:47:07;97665.38;;;5.26;97.98
83635;BME280;73596;49.482;11.238;2023-12-14T08:49:34;97660.41;;;5.23;97.59
83635;BME280;73596;49.482;11.238;2023-12-14T08:52:00;97669.50;;;5.29;97.75
83635;BME280;73596;49.482;11.238;2023-12-14T08:54:25;97680.38;;;5.32;97.88
83635;BME280;73596;49.482;11.238;2023-12-14T08:56:50;97679.53;;;5.32;97.52
83635;BME280;73596;49.482;11.238;2023-12-14T08:59:15;97678.53;;;5.34;97.77
83635;BME280;73596;49.482;11.238;2023-12-14T09:01:45;97687.72;;;5.38;97.77
83635;BME280;73596;49.482;11.238;2023-12-14T09:04:10;97699.59;;;5.39;97.92
83635;BME280;73596;49.482;11.238;2023-12-14T09:06:36;97699.84;;;5.35;97.51
83635;BME280;73596;49.482;11.238;2023-12-14T09:09:01;97714.22;;;5.37;97.62
83635;BME280;73596;49.482;11.238;2023-12-14T09:11:30;97718.44;;;5.38;96.27
83635;BME280;73596;49.482;11.238;2023-12-14T09:13:55;97714.31;;;5.36;97.17
83635;BME280;73596;49.482;11.238;2023-12-14T09:16:20;97715.94;;;5.37;97.46
83635;BME280;73596;49.482;11.238;2023-12-14T09:18:46;97717.63;;;5.38;96.53
83635;BME280;73596;49.482;11.238;2023-12-14T09:21:11;97724.56;;;5.36;96.82
83635;BME280;73596;49.482;11.238;2023-12-14T09:23:37;97731.00;;;5.43;97.16
83635;BME280;73596;49.482;11.238;2023-12-14T09:26:02;97732.84;;;5.25;95.98
83635;BME280;73596;49.482;11.238;2023-12-14T09:28:27;97742.84;;;5.14;96.46
83635;BME280;73596;49.482;11.238;2023-12-14T09:30:53;97749.19;;;5.07;95.63
83635;BME280;73596;49.482;11.238;2023-12-14T09:33:18;97755.00;;;4.95;95.60
83635;BME280;73596;49.482;11.238;2023-12-14T09:35:44;97760.34;;;4.90;95.88
83635;BME280;73596;49.482;11.238;2023-12-14T09:38:12;97749.34;;;4.88;96.74
83635;BME280;73596;49.482;11.238;2023-12-14T09:40:43;97753.16;;;4.81;96.90
83635;BME280;73596;49.482;11.238;2023-12-14T09:43:08;97754.25;;;4.77;96.70
83635;BME280;73596;49.482;11.238;2023-12-14T09:45:34;97767.63;;;4.82;97.06
83635;BME280;73596;49.482;11.238;2023-12-14T09:48:07;97763.06;;;4.72;97.15
83635;BME280;73596;49.482;11.238;2023-12-14T09:50:35;97773.72;;;4.80;97.13
83635;BME280;73596;49.482;11.238;2023-12-14T09:53:01;97773.63;;;4.81;97.52
83635;BME280;73596;49.482;11.238;2023-12-14T09:55:27;97775.09;;;4.70;96.66
83635;BME280;73596;49.482;11.238;2023-12-14T09:57:52;97778.91;;;4.78;96.83
83635;BME280;73596;49.482;11.238;2023-12-14T10:00:34;97782.63;;;4.73;97.06
83635;BME280;73596;49.482;11.238;2023-12-14T10:03:23;97781.78;;;4.72;97.04
83635;BME280;73596;49.482;11.238;2023-12-14T10:05:49;97787.81;;;4.71;97.12
83635;BME280;73596;49.482;11.238;2023-12-14T10:08:16;97793.66;;;4.73;96.92
83635;BME280;73596;49.482;11.238;2023-12-14T10:10:47;97794.44;;;4.75;97.10
83635;BME280;73596;49.482;11.238;2023-12-14T10:13:14;97807.13;;;4.77;97.26
83635;BME280;73596;49.482;11.238;2023-12-14T10:15:43;97802.09;;;4.91;98.15
83635;BME280;73596;49.482;11.238;2023-12-14T10:18:09;97788.41;;;4.92;98.14
83635;BME280;73596;49.482;11.238;2023-12-14T10:20:35;97798.09;;;5.02;98.23
83635;BME280;73596;49.482;11.238;2023-12-14T10:23:04;97803.63;;;5.10;97.82
83635;BME280;73596;49.482;11.238;2023-12-14T10:25:29;97802.38;;;5.18;97.98
83635;BME280;73596;49.482;11.238;2023-12-14T10:27:57;97802.13;;;5.22;97.75
83635;BME280;73596;49.482;11.238;2023-12-14T10:30:22;97798.56;;;5.25;97.68
83635;BME280;73596;49.482;11.238;2023-12-14T10:32:48;97805.19;;;5.29;97.73
83635;BME280;73596;49.482;11.238;2023-12-14T10:35:14;97805.09;;;5.30;97.56
83635;BME280;73596;49.482;11.238;2023-12-14T10:37:43;97813.28;;;5.37;97.30
83635;BME280;73596;49.482;11.238;2023-12-14T10:40:13;97815.59;;;5.41;97.17
83635;BME280;73596;49.482;11.238;2023-12-14T10:42:42;97818.53;;;5.49;97.06
83635;BME280;73596;49.482;11.238;2023-12-14T10:45:11;97812.69;;;5.47;96.78
83635;BME280;73596;49.482;11.238;2023-12-14T10:47:39;97816.66;;;5.53;96.98
83635;BME280;73596;49.482;11.238;2023-12-14T10:50:08;97821.44;;;5.59;96.67
83635;BME280;73596;49.482;11.238;2023-12-14T10:52:37;97823.81;;;5.62;96.25
83635;BME280;73596;49.482;11.238;2023-12-14T10:55:07;97820.25;;;5.64;96.46
83635;BME280;73596;49.482;11.238;2023-12-14T10:57:34;97824.50;;;5.65;96.03
83635;BME280;73596;49.482;11.238;2023-12-14T10:59:59;97831.19;;;5.68;96.42
83635;BME280;73596;49.482;11.238;2023-12-14T11:02:25;97830.09;;;5.72;96.41
83635;BME280;73596;49.482;11.238;2023-12-14T11:04:59;97828.28;;;5.74;96.16
83635;BME280;73596;49.482;11.238;2023-12-14T11:07:48;97832.22;;;5.79;95.86
83635;BME280;73596;49.482;11.238;2023-12-14T11:10:15;97839.91;;;5.79;96.02
83635;BME280;73596;49.482;11.238;2023-12-14T11:12:55;97836.28;;;5.84;95.97
83635;BME280;73596;49.482;11.238;2023-12-14T11:15:22;97840.34;;;5.88;96.00
83635;BME280;73596;49.482;11.238;2023-12-14T11:23:17;97839.28;;;5.92;96.16
83635;BME280;73596;49.482;11.238;2023-12-14T11:25:53;97857.59;;;6.00;95.38
83635;BME280;73596;49.482;11.238;2023-12-14T11:28:19;97849.16;;;5.98;95.31
83635;BME280;73596;49.482;11.238;2023-12-14T11:30:45;97859.72;;;6.07;95.78
83635;BME280;73596;49.482;11.238;2023-12-14T11:33:12;97860.50;;;6.09;95.87
83635;BME280;73596;49.482;11.238;2023-12-14T11:35:37;97870.38;;;6.15;95.84
83635;BME280;73596;49.482;11.238;2023-12-14T11:38:03;97868.56;;;6.17;95.02
83635;BME280;73596;49.482;11.238;2023-12-14T11:40:35;97872.03;;;6.16;95.20
83635;BME280;73596;49.482;11.238;2023-12-14T11:43:02;97869.38;;;6.18;95.51
83635;BME280;73596;49.482;11.238;2023-12-14T11:45:32;97871.94;;;6.18;95.34
83635;BME280;73596;49.482;11.238;2023-12-14T11:47:57;97874.69;;;6.15;95.20
83635;BME280;73596;49.482;11.238;2023-12-14T11:50:22;97866.34;;;6.11;94.91
83635;BME280;73596;49.482;11.238;2023-12-14T11:52:49;97882.19;;;6.18;95.42
83635;BME280;73596;49.482;11.238;2023-12-14T11:55:14;97883.88;;;6.19;94.99
83635;BME280;73596;49.482;11.238;2023-12-14T11:57:46;97877.06;;;6.18;95.35
83635;BME280;73596;49.482;11.238;2023-12-14T12:00:12;97883.03;;;6.18;94.74
83635;BME280;73596;49.482;11.238;2023-12-14T12:02:37;97885.50;;;6.20;94.56
83635;BME280;73596;49.482;11.238;2023-12-14T12:05:03;97885.88;;;6.14;94.25
83635;BME280;73596;49.482;11.238;2023-12-14T12:07:28;97888.34;;;6.15;94.55
83635;BME280;73596;49.482;11.238;2023-12-14T12:09:54;97885.13;;;6.12;94.41
83635;BME280;73596;49.482;11.238;2023-12-14T12:12:20;97897.13;;;6.11;94.01
83635;BME280;73596;49.482;11.238;2023-12-14T12:14:46;97885.13;;;6.12;94.17
83635;BME280;73596;49.482;11.238;2023-12-14T12:17:13;97884.38;;;6.10;95.02
83635;BME280;73596;49.482;11.238;2023-12-14T12:19:40;97888.34;;;6.15;94.22
83635;BME280;73596;49.482;11.238;2023-12-14T12:22:08;97890.00;;;6.16;94.29
83635;BME280;73596;49.482;11.238;2023-12-14T12:24:34;97899.41;;;6.16;95.27
83635;BME280;73596;49.482;11.238;2023-12-14T12:26:59;97896.75;;;6.17;94.94
83635;BME280;73596;49.482;11.238;2023-12-14T12:29:24;97897.41;;;6.21;94.96
83635;BME280;73596;49.482;11.238;2023-12-14T12:31:53;97892.47;;;6.18;95.03
83635;BME280;73596;49.482;11.238;2023-12-14T12:34:19;97897.31;;;6.22;95.00
83635;BME280;73596;49.482;11.238;2023-12-14T12:36:44;97900.72;;;6.23;95.40
83635;BME280;73596;49.482;11.238;2023-12-14T12:39:09;97889.00;;;6.19;94.88
83635;BME280;73596;49.482;11.238;2023-12-14T12:41:35;97899.88;;;6.22;95.13
83635;BME280;73596;49.482;11.238;2023-12-14T12:44:07;97899.72;;;6.25;94.88
83635;BME280;73596;49.482;11.238;2023-12-14T12:46:36;97898.00;;;6.26;94.73
83635;BME280;73596;49.482;11.238;2023-12-14T12:49:02;97898.88;;;6.25;95.06
83635;BME280;73596;49.482;11.238;2023-12-14T12:51:28;97908.91;;;6.29;94.28
83635;BME280;73596;49.482;11.238;2023-12-14T12:53:55;97895.31;;;6.27;94.93
83635;BME280;73596;49.482;11.238;2023-12-14T12:56:20;97902.03;;;6.30;95.04
83635;BME280;73596;49.482;11.238;2023-12-14T12:58:46;97901.22;;;6.29;94.56
83635;BME280;73596;49.482;11.238;2023-12-14T13:01:11;97901.28;;;6.28;94.28